createdAt,value
2022-10-07T00:00:38.776Z,0.00
2022-10-07T00:01:38.823Z,0.00
2022-10-07T00:02:38.759Z,0.00
2022-10-07T00:03:38.761Z,0.00
2022-10-07T00:04:38.720Z,0.00
2022-10-07T00:05:38.708Z,0.00
2022-10-07T00:06:38.696Z,0.00
2022-10-07T00:07:38.685Z,0.00
2022-10-07T00:08:38.671Z,0.00
2022-10-07T00:09:38.657Z,0.00
2022-10-07T00:10:38.639Z,0.00
2022-10-07T00:11:38.625Z,0.00
2022-10-07T00:12:38.616Z,0.00
2022-10-07T00:13:38.599Z,0.00
2022-10-07T00:14:38.585Z,0.00
2022-10-07T00:15:38.574Z,0.00
2022-10-07T00:16:38.650Z,0.00
2022-10-07T00:17:38.547Z,0.00
2022-10-07T00:18:38.538Z,0.00
2022-10-07T00:19:38.537Z,0.00
2022-10-07T00:20:38.504Z,0.00
2022-10-07T00:21:38.496Z,0.00
2022-10-07T00:22:38.481Z,0.00
2022-10-07T00:23:38.464Z,0.00
2022-10-07T00:24:38.452Z,0.00
2022-10-07T00:25:38.444Z,0.00
2022-10-07T00:26:38.423Z,0.00
2022-10-07T00:27:38.409Z,0.00
2022-10-07T00:28:38.432Z,0.00
2022-10-07T00:29:38.382Z,0.00
2022-10-07T00:30:38.409Z,0.00
2022-10-07T00:31:38.354Z,0.00
2022-10-07T00:32:38.341Z,0.00
2022-10-07T00:33:38.330Z,0.00
2022-10-07T00:34:38.317Z,0.00
2022-10-07T00:35:38.645Z,0.00
2022-10-07T00:36:38.289Z,0.00
2022-10-07T00:37:38.278Z,0.00
2022-10-07T00:38:38.268Z,0.00
2022-10-07T00:39:38.254Z,0.00
2022-10-07T00:40:38.239Z,0.00
2022-10-07T00:41:38.222Z,0.00
2022-10-07T00:42:38.214Z,0.00
2022-10-07T00:43:38.199Z,0.00
2022-10-07T00:44:38.192Z,0.00
2022-10-07T00:45:38.197Z,0.00
2022-10-07T00:46:38.162Z,0.00
2022-10-07T00:47:38.148Z,0.00
2022-10-07T00:48:38.138Z,0.00
2022-10-07T00:49:38.119Z,0.00
2022-10-07T00:50:38.115Z,0.00
2022-10-07T00:51:38.108Z,0.00
2022-10-07T00:52:38.079Z,0.00
2022-10-07T00:53:38.062Z,0.00
2022-10-07T00:54:38.051Z,0.00
2022-10-07T00:55:38.035Z,0.00
2022-10-07T00:56:38.030Z,0.00
2022-10-07T00:57:38.007Z,0.00
2022-10-07T00:58:37.999Z,0.00
2022-10-07T00:59:37.996Z,0.00
2022-10-07T01:00:37.978Z,0.00
2022-10-07T01:01:38.038Z,0.00
2022-10-07T01:02:38.015Z,0.00
2022-10-07T01:03:37.931Z,0.00
2022-10-07T01:04:37.924Z,0.00
2022-10-07T01:05:38.152Z,0.00
2022-10-07T01:06:37.891Z,0.00
2022-10-07T01:07:37.901Z,0.00
2022-10-07T01:08:37.869Z,0.00
2022-10-07T01:09:37.858Z,0.00
2022-10-07T01:10:37.843Z,0.00
2022-10-07T01:11:37.832Z,0.00
2022-10-07T01:12:37.819Z,0.00
2022-10-07T01:13:37.799Z,0.00
2022-10-07T01:14:37.789Z,0.00
2022-10-07T01:15:37.773Z,0.00
2022-10-07T01:16:37.784Z,0.00
2022-10-07T01:17:37.741Z,0.00
2022-10-07T01:18:37.735Z,0.00
2022-10-07T01:19:37.719Z,0.00
2022-10-07T01:20:37.709Z,0.00
2022-10-07T01:21:37.689Z,0.00
2022-10-07T01:22:37.681Z,0.00
2022-10-07T01:23:37.689Z,0.00
2022-10-07T01:24:37.655Z,0.00
2022-10-07T01:25:37.640Z,0.00
2022-10-07T01:26:37.634Z,0.00
2022-10-07T01:27:37.617Z,0.00
2022-10-07T01:28:37.687Z,0.00
2022-10-07T01:29:37.590Z,0.00
2022-10-07T01:30:37.642Z,0.00
2022-10-07T01:31:37.559Z,0.00
2022-10-07T01:32:37.546Z,0.00
2022-10-07T01:33:37.532Z,0.00
2022-10-07T01:34:37.524Z,0.00
2022-10-07T01:35:37.506Z,0.00
2022-10-07T01:36:37.494Z,0.00
2022-10-07T01:37:37.477Z,0.00
2022-10-07T01:38:37.469Z,0.00
2022-10-07T01:39:37.480Z,0.00
2022-10-07T01:40:37.447Z,0.00
2022-10-07T01:41:37.434Z,0.00
2022-10-07T01:42:37.419Z,0.00
2022-10-07T01:43:37.400Z,0.00
2022-10-07T01:44:37.394Z,0.00
2022-10-07T01:45:37.373Z,0.00
2022-10-07T01:46:37.458Z,0.00
2022-10-07T01:47:37.346Z,0.00
2022-10-07T01:48:37.390Z,0.00
2022-10-07T01:49:37.322Z,0.00
2022-10-07T01:50:37.311Z,0.00
2022-10-07T01:51:37.293Z,0.00
2022-10-07T01:52:37.285Z,0.00
2022-10-07T01:53:37.272Z,0.00
2022-10-07T01:54:37.259Z,0.00
2022-10-07T01:55:37.267Z,0.00
2022-10-07T01:56:37.236Z,0.00
2022-10-07T01:57:37.221Z,0.00
2022-10-07T01:58:37.213Z,0.00
2022-10-07T01:59:37.195Z,0.00
2022-10-07T02:00:37.189Z,0.00
2022-10-07T02:01:37.263Z,0.00
2022-10-07T02:02:37.159Z,0.00
2022-10-07T02:03:37.210Z,0.00
2022-10-07T02:04:37.130Z,0.00
2022-10-07T02:05:37.113Z,0.00
2022-10-07T02:06:37.106Z,0.00
2022-10-07T02:07:37.088Z,0.00
2022-10-07T02:08:37.080Z,0.00
2022-10-07T02:09:37.066Z,0.00
2022-10-07T02:10:37.056Z,0.00
2022-10-07T02:11:37.057Z,0.00
2022-10-07T02:12:37.024Z,0.00
2022-10-07T02:13:37.006Z,0.00
2022-10-07T02:14:36.999Z,0.00
2022-10-07T02:15:37.071Z,0.00
2022-10-07T02:16:36.973Z,0.00
2022-10-07T02:17:36.958Z,0.00
2022-10-07T02:18:36.950Z,0.00
2022-10-07T02:19:36.933Z,0.00
2022-10-07T02:20:36.923Z,0.00
2022-10-07T02:21:36.912Z,0.00
2022-10-07T02:22:36.900Z,0.00
2022-10-07T02:23:36.876Z,0.00
2022-10-07T02:24:36.873Z,0.00
2022-10-07T02:25:36.849Z,0.00
2022-10-07T02:26:36.840Z,0.00
2022-10-07T02:27:36.849Z,0.00
2022-10-07T02:28:36.874Z,0.00
2022-10-07T02:29:36.799Z,0.00
2022-10-07T02:30:36.790Z,0.00
2022-10-07T02:31:36.770Z,0.00
2022-10-07T02:32:36.765Z,0.00
2022-10-07T02:33:36.745Z,0.00
2022-10-07T02:34:36.734Z,0.00
2022-10-07T02:35:36.728Z,0.00
2022-10-07T02:36:36.820Z,0.00
2022-10-07T02:37:36.696Z,0.00
2022-10-07T02:38:36.687Z,0.00
2022-10-07T02:39:36.663Z,0.00
2022-10-07T02:40:36.657Z,0.00
2022-10-07T02:41:36.638Z,0.00
2022-10-07T02:42:36.630Z,0.00
2022-10-07T02:43:36.643Z,0.00
2022-10-07T02:44:36.609Z,0.00
2022-10-07T02:45:36.591Z,0.00
2022-10-07T02:46:36.609Z,0.00
2022-10-07T02:47:36.663Z,0.00
2022-10-07T02:48:36.558Z,0.00
2022-10-07T02:49:36.538Z,0.00
2022-10-07T02:50:36.527Z,0.00
2022-10-07T02:51:36.507Z,0.00
2022-10-07T02:52:36.498Z,0.00
2022-10-07T02:53:36.482Z,0.00
2022-10-07T02:54:36.474Z,0.00
2022-10-07T02:55:36.454Z,0.00
2022-10-07T02:56:36.445Z,0.00
2022-10-07T02:57:36.427Z,0.00
2022-10-07T02:58:36.421Z,0.00
2022-10-07T02:59:36.428Z,0.00
2022-10-07T03:00:36.397Z,0.00
2022-10-07T03:01:36.435Z,0.00
2022-10-07T03:02:36.371Z,0.00
2022-10-07T03:03:36.404Z,0.00
2022-10-07T03:04:36.344Z,0.00
2022-10-07T03:05:36.329Z,0.00
2022-10-07T03:06:36.320Z,0.00
2022-10-07T03:07:36.298Z,0.00
2022-10-07T03:08:36.290Z,0.00
2022-10-07T03:09:36.271Z,0.00
2022-10-07T03:10:36.264Z,0.00
2022-10-07T03:11:36.249Z,0.00
2022-10-07T03:12:36.240Z,0.00
2022-10-07T03:13:36.233Z,0.00
2022-10-07T03:14:36.215Z,0.00
2022-10-07T03:15:41.073Z,0.00
2022-10-07T03:16:36.184Z,0.00
2022-10-07T03:17:36.176Z,0.00
2022-10-07T03:18:36.154Z,0.00
2022-10-07T03:19:36.140Z,0.00
2022-10-07T03:20:36.133Z,0.00
2022-10-07T03:21:36.112Z,0.00
2022-10-07T03:22:36.104Z,0.00
2022-10-07T03:23:36.090Z,0.00
2022-10-07T03:24:36.082Z,0.00
2022-10-07T03:25:36.064Z,0.00
2022-10-07T03:26:36.057Z,0.00
2022-10-07T03:27:36.039Z,0.00
2022-10-07T03:28:36.118Z,0.00
2022-10-07T03:29:36.012Z,0.00
2022-10-07T03:30:36.104Z,0.00
2022-10-07T03:31:36.045Z,0.00
2022-10-07T03:32:35.974Z,0.00
2022-10-07T03:33:35.954Z,0.00
2022-10-07T03:34:35.952Z,0.00
2022-10-07T03:35:35.929Z,0.00
2022-10-07T03:36:35.919Z,0.00
2022-10-07T03:37:35.900Z,0.00
2022-10-07T03:38:35.894Z,0.00
2022-10-07T03:39:35.881Z,0.00
2022-10-07T03:40:35.872Z,0.00
2022-10-07T03:41:35.852Z,0.00
2022-10-07T03:42:35.850Z,0.00
2022-10-07T03:43:35.827Z,0.00
2022-10-07T03:44:35.859Z,0.00
2022-10-07T03:45:35.796Z,0.00
2022-10-07T03:46:35.875Z,0.00
2022-10-07T03:47:35.800Z,0.00
2022-10-07T03:48:35.770Z,0.00
2022-10-07T03:49:35.751Z,0.00
2022-10-07T03:50:35.734Z,0.00
2022-10-07T03:51:35.726Z,0.00
2022-10-07T03:52:35.708Z,0.00
2022-10-07T03:53:35.700Z,0.00
2022-10-07T03:54:35.685Z,0.00
2022-10-07T03:55:35.668Z,0.00
2022-10-07T03:56:35.650Z,0.00
2022-10-07T03:57:35.639Z,0.00
2022-10-07T03:58:35.626Z,0.00
2022-10-07T03:59:35.613Z,0.00
2022-10-07T04:00:35.600Z,0.00
2022-10-07T04:01:35.678Z,0.00
2022-10-07T04:02:35.665Z,0.00
2022-10-07T04:03:35.590Z,0.00
2022-10-07T04:04:35.547Z,0.00
2022-10-07T04:05:35.540Z,0.00
2022-10-07T04:06:35.525Z,0.00
2022-10-07T04:07:35.514Z,0.00
2022-10-07T04:08:35.496Z,0.00
2022-10-07T04:09:35.487Z,0.00
2022-10-07T04:10:35.473Z,0.00
2022-10-07T04:11:35.459Z,0.00
2022-10-07T04:12:35.441Z,0.00
2022-10-07T04:13:35.425Z,0.00
2022-10-07T04:14:35.411Z,0.00
2022-10-07T04:15:35.406Z,0.00
2022-10-07T04:16:38.119Z,0.00
2022-10-07T04:17:35.379Z,0.00
2022-10-07T04:18:35.359Z,0.00
2022-10-07T04:19:35.455Z,0.00
2022-10-07T04:20:35.328Z,0.00
2022-10-07T04:21:35.356Z,0.00
2022-10-07T04:22:35.301Z,0.00
2022-10-07T04:23:35.295Z,0.00
2022-10-07T04:24:35.296Z,0.00
2022-10-07T04:25:35.265Z,0.00
2022-10-07T04:26:35.257Z,0.00
2022-10-07T04:27:51.272Z,0.00
2022-10-07T04:28:36.331Z,0.00
2022-10-07T04:29:38.965Z,0.00
2022-10-07T04:30:35.198Z,0.00
2022-10-07T04:31:35.297Z,0.00
2022-10-07T04:32:35.174Z,0.00
2022-10-07T04:33:35.160Z,0.00
2022-10-07T04:34:35.145Z,0.00
2022-10-07T04:35:35.226Z,0.00
2022-10-07T04:36:35.117Z,0.00
2022-10-07T04:37:35.108Z,0.00
2022-10-07T04:38:35.090Z,0.00
2022-10-07T04:39:59.175Z,0.00
2022-10-07T04:40:36.083Z,0.00
2022-10-07T04:41:35.053Z,0.00
2022-10-07T04:42:35.043Z,0.00
2022-10-07T04:43:35.029Z,0.00
2022-10-07T04:44:35.014Z,0.00
2022-10-07T04:45:35.019Z,0.00
2022-10-07T04:46:35.057Z,0.00
2022-10-07T04:47:34.968Z,0.00
2022-10-07T04:48:34.965Z,0.00
2022-10-07T04:49:34.955Z,0.00
2022-10-07T04:50:34.936Z,0.00
2022-10-07T04:51:34.944Z,0.00
2022-10-07T04:52:34.907Z,0.00
2022-10-07T04:53:34.894Z,0.00
2022-10-07T04:54:34.879Z,0.00
2022-10-07T04:55:34.871Z,0.00
2022-10-07T04:56:34.854Z,0.00
2022-10-07T04:57:34.844Z,0.00
2022-10-07T04:58:34.822Z,0.00
2022-10-07T04:59:36.429Z,0.00
2022-10-07T05:00:34.805Z,0.00
2022-10-07T05:01:34.792Z,0.00
2022-10-07T05:02:34.815Z,0.00
2022-10-07T05:03:34.763Z,0.00
2022-10-07T05:04:34.738Z,0.00
2022-10-07T05:05:34.729Z,0.00
2022-10-07T05:06:34.717Z,0.00
2022-10-07T05:07:34.733Z,0.00
2022-10-07T05:08:34.696Z,0.00
2022-10-07T05:09:34.680Z,0.00
2022-10-07T05:10:34.664Z,0.00
2022-10-07T05:11:34.652Z,0.00
2022-10-07T05:12:34.637Z,0.00
2022-10-07T05:13:34.676Z,0.00
2022-10-07T05:14:34.611Z,0.00
2022-10-07T05:15:34.596Z,0.00
2022-10-07T05:16:34.661Z,0.00
2022-10-07T05:17:34.582Z,0.00
2022-10-07T05:18:34.554Z,0.00
2022-10-07T05:19:34.547Z,0.00
2022-10-07T05:20:34.529Z,0.00
2022-10-07T05:21:34.522Z,0.00
2022-10-07T05:22:34.509Z,0.00
2022-10-07T05:23:34.510Z,5.62
2022-10-07T05:24:34.472Z,5.62
2022-10-07T05:25:34.464Z,5.62
2022-10-07T05:26:34.444Z,5.62
2022-10-07T05:27:34.440Z,5.62
2022-10-07T05:28:34.490Z,5.62
2022-10-07T05:29:34.407Z,5.62
2022-10-07T05:30:34.390Z,11.25
2022-10-07T05:31:34.470Z,11.25
2022-10-07T05:32:34.370Z,11.25
2022-10-07T05:33:34.368Z,11.25
2022-10-07T05:34:34.340Z,11.25
2022-10-07T05:35:34.329Z,16.88
2022-10-07T05:36:34.318Z,16.88
2022-10-07T05:37:34.306Z,16.88
2022-10-07T05:38:34.288Z,16.88
2022-10-07T05:39:34.366Z,22.50
2022-10-07T05:40:34.257Z,22.50
2022-10-07T05:41:38.434Z,22.50
2022-10-07T05:42:35.252Z,28.12
2022-10-07T05:43:34.218Z,28.12
2022-10-07T05:44:34.206Z,33.75
2022-10-07T05:45:34.275Z,33.75
2022-10-07T05:46:34.175Z,39.38
2022-10-07T05:47:34.169Z,39.38
2022-10-07T05:48:38.718Z,39.38
2022-10-07T05:49:34.141Z,39.38
2022-10-07T05:50:34.128Z,45.00
2022-10-07T05:51:34.118Z,45.00
2022-10-07T05:52:34.102Z,45.00
2022-10-07T05:53:34.093Z,50.62
2022-10-07T05:54:34.074Z,50.62
2022-10-07T05:55:39.426Z,56.25
2022-10-07T05:56:35.069Z,61.88
2022-10-07T05:57:34.032Z,61.88
2022-10-07T05:58:34.015Z,67.50
2022-10-07T05:59:34.001Z,73.12
2022-10-07T06:00:33.988Z,78.75
2022-10-07T06:01:33.979Z,84.38
2022-10-07T06:02:34.186Z,90.00
2022-10-07T06:03:33.954Z,95.62
2022-10-07T06:04:33.940Z,101.25
2022-10-07T06:05:33.922Z,106.88
2022-10-07T06:06:33.908Z,106.88
2022-10-07T06:07:33.901Z,112.50
2022-10-07T06:08:33.884Z,123.75
2022-10-07T06:09:33.867Z,135.00
2022-10-07T06:10:33.853Z,135.00
2022-10-07T06:11:33.874Z,146.25
2022-10-07T06:12:33.831Z,151.88
2022-10-07T06:13:33.847Z,157.50
2022-10-07T06:14:33.808Z,157.50
2022-10-07T06:15:33.799Z,157.50
2022-10-07T06:16:33.945Z,174.38
2022-10-07T06:17:33.775Z,180.00
2022-10-07T06:18:33.753Z,168.75
2022-10-07T06:19:33.739Z,202.50
2022-10-07T06:20:33.719Z,202.50
2022-10-07T06:21:33.719Z,213.75
2022-10-07T06:22:33.698Z,225.00
2022-10-07T06:23:33.702Z,225.00
2022-10-07T06:24:33.672Z,236.25
2022-10-07T06:25:33.662Z,247.50
2022-10-07T06:26:33.646Z,270.00
2022-10-07T06:27:33.653Z,292.50
2022-10-07T06:28:33.686Z,309.38
2022-10-07T06:29:33.601Z,320.62
2022-10-07T06:30:33.639Z,320.62
2022-10-07T06:31:33.575Z,320.62
2022-10-07T06:32:33.567Z,320.62
2022-10-07T06:33:33.550Z,320.62
2022-10-07T06:34:33.534Z,320.62
2022-10-07T06:35:33.525Z,315.00
2022-10-07T06:36:33.516Z,320.62
2022-10-07T06:37:33.500Z,326.25
2022-10-07T06:38:33.483Z,331.88
2022-10-07T06:39:33.476Z,337.50
2022-10-07T06:40:33.461Z,348.75
2022-10-07T06:41:33.445Z,360.00
2022-10-07T06:42:33.427Z,371.25
2022-10-07T06:43:33.483Z,382.50
2022-10-07T06:44:33.400Z,393.75
2022-10-07T06:45:33.455Z,410.62
2022-10-07T06:46:33.374Z,421.88
2022-10-07T06:47:33.369Z,421.88
2022-10-07T06:48:33.343Z,421.88
2022-10-07T06:49:33.336Z,427.50
2022-10-07T06:50:33.317Z,427.50
2022-10-07T06:51:33.313Z,433.12
2022-10-07T06:52:33.297Z,438.75
2022-10-07T06:53:33.287Z,444.38
2022-10-07T06:54:33.271Z,444.38
2022-10-07T06:55:33.256Z,450.00
2022-10-07T06:56:33.239Z,461.25
2022-10-07T06:57:45.298Z,466.88
2022-10-07T06:58:34.233Z,478.12
2022-10-07T06:59:33.233Z,489.38
2022-10-07T07:00:33.219Z,500.62
2022-10-07T07:01:33.270Z,506.25
2022-10-07T07:02:33.227Z,506.25
2022-10-07T07:03:33.152Z,506.25
2022-10-07T07:04:33.140Z,517.50
2022-10-07T07:05:33.132Z,528.75
2022-10-07T07:06:33.115Z,528.75
2022-10-07T07:07:33.098Z,528.75
2022-10-07T07:08:33.081Z,534.38
2022-10-07T07:09:33.075Z,540.00
2022-10-07T07:10:33.059Z,534.38
2022-10-07T07:11:33.056Z,483.75
2022-10-07T07:12:33.034Z,444.38
2022-10-07T07:13:33.019Z,444.38
2022-10-07T07:14:33.006Z,388.12
2022-10-07T07:15:33.009Z,320.62
2022-10-07T07:16:33.021Z,309.38
2022-10-07T07:17:32.963Z,309.38
2022-10-07T07:18:32.947Z,326.25
2022-10-07T07:19:32.937Z,337.50
2022-10-07T07:20:32.918Z,337.50
2022-10-07T07:21:32.910Z,365.62
2022-10-07T07:22:32.896Z,354.38
2022-10-07T07:23:32.887Z,320.62
2022-10-07T07:24:32.873Z,315.00
2022-10-07T07:25:32.860Z,320.62
2022-10-07T07:26:32.845Z,337.50
2022-10-07T07:27:32.833Z,320.62
2022-10-07T07:28:32.875Z,309.38
2022-10-07T07:29:32.801Z,303.75
2022-10-07T07:30:32.833Z,309.38
2022-10-07T07:31:32.817Z,315.00
2022-10-07T07:32:32.765Z,315.00
2022-10-07T07:33:32.754Z,320.62
2022-10-07T07:34:32.754Z,315.00
2022-10-07T07:35:32.736Z,315.00
2022-10-07T07:36:32.714Z,303.75
2022-10-07T07:37:32.703Z,298.12
2022-10-07T07:38:32.685Z,309.38
2022-10-07T07:39:32.672Z,326.25
2022-10-07T07:40:32.708Z,331.88
2022-10-07T07:41:32.649Z,331.88
2022-10-07T07:42:32.642Z,315.00
2022-10-07T07:43:32.621Z,320.62
2022-10-07T07:44:34.961Z,320.62
2022-10-07T07:45:32.597Z,331.88
2022-10-07T07:46:32.583Z,365.62
2022-10-07T07:47:32.590Z,388.12
2022-10-07T07:48:32.549Z,360.00
2022-10-07T07:49:32.543Z,315.00
2022-10-07T07:50:32.521Z,309.38
2022-10-07T07:51:32.514Z,309.38
2022-10-07T07:52:32.499Z,309.38
2022-10-07T07:53:32.483Z,315.00
2022-10-07T07:54:32.471Z,320.62
2022-10-07T07:55:32.466Z,326.25
2022-10-07T07:56:32.454Z,348.75
2022-10-07T07:57:32.439Z,393.75
2022-10-07T07:58:32.418Z,601.88
2022-10-07T07:59:32.407Z,759.38
2022-10-07T08:00:32.407Z,776.25
2022-10-07T08:01:32.526Z,804.38
2022-10-07T08:02:32.420Z,810.00
2022-10-07T08:03:32.376Z,753.75
2022-10-07T08:04:32.345Z,832.50
2022-10-07T08:05:32.320Z,826.88
2022-10-07T08:06:32.313Z,866.25
2022-10-07T08:07:32.297Z,838.12
2022-10-07T08:08:32.286Z,911.25
2022-10-07T08:09:32.269Z,900.00
2022-10-07T08:10:32.261Z,928.12
2022-10-07T08:11:32.248Z,916.88
2022-10-07T08:12:32.243Z,922.50
2022-10-07T08:13:32.219Z,939.38
2022-10-07T08:14:32.205Z,871.88
2022-10-07T08:15:32.230Z,871.88
2022-10-07T08:16:32.183Z,860.62
2022-10-07T08:17:32.166Z,945.00
2022-10-07T08:18:32.158Z,945.00
2022-10-07T08:19:32.166Z,956.25
2022-10-07T08:20:32.141Z,843.75
2022-10-07T08:21:32.114Z,596.25
2022-10-07T08:22:32.115Z,551.25
2022-10-07T08:23:32.089Z,961.88
2022-10-07T08:24:32.079Z,961.88
2022-10-07T08:25:32.069Z,669.38
2022-10-07T08:26:32.054Z,658.12
2022-10-07T08:27:32.033Z,911.25
2022-10-07T08:28:32.126Z,753.75
2022-10-07T08:29:32.007Z,579.38
2022-10-07T08:30:32.000Z,759.38
2022-10-07T08:31:32.006Z,1023.75
2022-10-07T08:32:31.979Z,916.88
2022-10-07T08:33:31.962Z,945.00
2022-10-07T08:34:31.952Z,956.25
2022-10-07T08:35:31.950Z,900.00
2022-10-07T08:36:31.921Z,961.88
2022-10-07T08:37:31.907Z,1175.62
2022-10-07T08:38:31.897Z,1186.88
2022-10-07T08:39:31.877Z,1215.00
2022-10-07T08:40:31.873Z,1108.12
2022-10-07T08:41:31.853Z,1215.00
2022-10-07T08:42:31.842Z,1186.88
2022-10-07T08:43:31.832Z,1198.12
2022-10-07T08:44:31.826Z,1170.00
2022-10-07T08:45:31.965Z,1175.62
2022-10-07T08:46:31.869Z,1231.88
2022-10-07T08:47:31.779Z,1231.88
2022-10-07T08:48:31.766Z,1237.50
2022-10-07T08:49:31.752Z,1220.62
2022-10-07T08:50:31.741Z,1051.88
2022-10-07T08:51:31.742Z,933.75
2022-10-07T08:52:31.719Z,950.62
2022-10-07T08:53:31.695Z,810.00
2022-10-07T08:54:31.698Z,945.00
2022-10-07T08:55:31.670Z,1023.75
2022-10-07T08:56:31.664Z,1203.75
2022-10-07T08:57:31.648Z,1175.62
2022-10-07T08:58:31.641Z,1102.50
2022-10-07T08:59:31.623Z,765.00
2022-10-07T09:00:31.616Z,742.50
2022-10-07T09:01:31.741Z,652.50
2022-10-07T09:02:31.645Z,573.75
2022-10-07T09:03:31.584Z,562.50
2022-10-07T09:04:31.563Z,556.88
2022-10-07T09:05:31.546Z,534.38
2022-10-07T09:06:31.538Z,624.38
2022-10-07T09:07:31.554Z,495.00
2022-10-07T09:08:31.525Z,466.88
2022-10-07T09:09:31.507Z,410.62
2022-10-07T09:10:31.487Z,405.00
2022-10-07T09:11:31.472Z,438.75
2022-10-07T09:12:31.463Z,506.25
2022-10-07T09:13:31.445Z,551.25
2022-10-07T09:14:31.443Z,579.38
2022-10-07T09:15:31.476Z,534.38
2022-10-07T09:16:31.400Z,495.00
2022-10-07T09:17:35.062Z,466.88
2022-10-07T09:18:31.485Z,461.25
2022-10-07T09:19:31.371Z,461.25
2022-10-07T09:20:31.354Z,450.00
2022-10-07T09:21:31.357Z,444.38
2022-10-07T09:22:31.332Z,433.12
2022-10-07T09:23:31.381Z,410.62
2022-10-07T09:24:31.327Z,416.25
2022-10-07T09:25:31.285Z,433.12
2022-10-07T09:26:31.283Z,433.12
2022-10-07T09:27:31.262Z,427.50
2022-10-07T09:28:31.488Z,444.38
2022-10-07T09:29:31.230Z,466.88
2022-10-07T09:30:31.224Z,483.75
2022-10-07T09:31:31.240Z,478.12
2022-10-07T09:32:31.201Z,466.88
2022-10-07T09:33:31.184Z,461.25
2022-10-07T09:34:31.188Z,438.75
2022-10-07T09:35:31.156Z,433.12
2022-10-07T09:36:31.148Z,450.00
2022-10-07T09:37:31.128Z,472.50
2022-10-07T09:38:31.118Z,489.38
2022-10-07T09:39:31.128Z,500.62
2022-10-07T09:40:31.102Z,489.38
2022-10-07T09:41:31.476Z,472.50
2022-10-07T09:42:31.071Z,455.62
2022-10-07T09:43:31.054Z,450.00
2022-10-07T09:44:31.048Z,461.25
2022-10-07T09:45:31.029Z,455.62
2022-10-07T09:46:31.084Z,461.25
2022-10-07T09:47:30.997Z,450.00
2022-10-07T09:48:30.989Z,444.38
2022-10-07T09:49:30.983Z,433.12
2022-10-07T09:50:30.963Z,433.12
2022-10-07T09:51:30.943Z,455.62
2022-10-07T09:52:30.933Z,483.75
2022-10-07T09:53:30.919Z,528.75
2022-10-07T09:54:30.908Z,528.75
2022-10-07T09:55:31.018Z,523.12
2022-10-07T09:56:30.886Z,517.50
2022-10-07T09:57:30.868Z,506.25
2022-10-07T09:58:30.861Z,489.38
2022-10-07T09:59:30.845Z,495.00
2022-10-07T10:00:30.833Z,511.88
2022-10-07T10:01:30.817Z,534.38
2022-10-07T10:02:30.971Z,545.62
2022-10-07T10:03:30.918Z,630.00
2022-10-07T10:04:30.777Z,798.75
2022-10-07T10:05:30.759Z,708.75
2022-10-07T10:06:30.754Z,916.88
2022-10-07T10:07:30.743Z,849.38
2022-10-07T10:08:30.728Z,810.00
2022-10-07T10:09:30.711Z,787.50
2022-10-07T10:10:30.709Z,855.00
2022-10-07T10:11:30.720Z,871.88
2022-10-07T10:12:30.678Z,1018.12
2022-10-07T10:13:30.672Z,967.50
2022-10-07T10:14:30.647Z,916.88
2022-10-07T10:15:30.627Z,922.50
2022-10-07T10:16:30.618Z,798.75
2022-10-07T10:17:30.608Z,742.50
2022-10-07T10:18:30.591Z,669.38
2022-10-07T10:19:34.907Z,686.25
2022-10-07T10:20:31.589Z,658.12
2022-10-07T10:21:30.560Z,691.88
2022-10-07T10:22:30.544Z,708.75
2022-10-07T10:23:30.530Z,691.88
2022-10-07T10:24:30.568Z,871.88
2022-10-07T10:25:30.501Z,731.25
2022-10-07T10:26:33.950Z,1023.75
2022-10-07T10:27:30.490Z,736.88
2022-10-07T10:28:30.528Z,708.75
2022-10-07T10:29:30.452Z,697.50
2022-10-07T10:30:30.439Z,613.12
2022-10-07T10:31:30.489Z,624.38
2022-10-07T10:32:30.422Z,618.75
2022-10-07T10:33:30.413Z,601.88
2022-10-07T10:34:30.383Z,607.50
2022-10-07T10:35:30.375Z,641.25
2022-10-07T10:36:30.364Z,663.75
2022-10-07T10:37:30.347Z,669.38
2022-10-07T10:38:30.339Z,618.75
2022-10-07T10:39:30.313Z,590.62
2022-10-07T10:40:30.307Z,568.12
2022-10-07T10:41:30.288Z,534.38
2022-10-07T10:42:31.324Z,534.38
2022-10-07T10:43:30.401Z,523.12
2022-10-07T10:44:30.257Z,540.00
2022-10-07T10:45:30.251Z,573.75
2022-10-07T10:46:30.285Z,573.75
2022-10-07T10:47:30.214Z,585.00
2022-10-07T10:48:30.209Z,585.00
2022-10-07T10:49:30.193Z,556.88
2022-10-07T10:50:30.184Z,545.62
2022-10-07T10:51:30.159Z,528.75
2022-10-07T10:52:30.150Z,517.50
2022-10-07T10:53:30.138Z,511.88
2022-10-07T10:54:30.122Z,517.50
2022-10-07T10:55:30.105Z,500.62
2022-10-07T10:56:30.100Z,483.75
2022-10-07T10:57:30.080Z,461.25
2022-10-07T10:58:30.071Z,444.38
2022-10-07T10:59:30.097Z,444.38
2022-10-07T11:00:30.054Z,438.75
2022-10-07T11:01:30.084Z,444.38
2022-10-07T11:02:30.118Z,455.62
2022-10-07T11:03:30.006Z,461.25
2022-10-07T11:04:30.002Z,472.50
2022-10-07T11:05:29.981Z,472.50
2022-10-07T11:06:29.970Z,461.25
2022-10-07T11:07:29.951Z,450.00
2022-10-07T11:08:32.424Z,450.00
2022-10-07T11:09:30.989Z,466.88
2022-10-07T11:10:29.923Z,455.62
2022-10-07T11:11:29.906Z,444.38
2022-10-07T11:12:29.891Z,450.00
2022-10-07T11:13:29.876Z,444.38
2022-10-07T11:14:29.868Z,438.75
2022-10-07T11:15:29.871Z,438.75
2022-10-07T11:16:29.832Z,433.12
2022-10-07T11:17:29.816Z,433.12
2022-10-07T11:18:29.808Z,427.50
2022-10-07T11:19:29.792Z,427.50
2022-10-07T11:20:29.781Z,433.12
2022-10-07T11:21:29.766Z,450.00
2022-10-07T11:22:29.750Z,455.62
2022-10-07T11:23:29.746Z,455.62
2022-10-07T11:24:29.732Z,450.00
2022-10-07T11:25:29.714Z,450.00
2022-10-07T11:26:32.439Z,466.88
2022-10-07T11:27:29.689Z,478.12
2022-10-07T11:28:29.781Z,483.75
2022-10-07T11:29:29.670Z,489.38
2022-10-07T11:30:29.650Z,489.38
2022-10-07T11:31:29.743Z,489.38
2022-10-07T11:32:29.624Z,500.62
2022-10-07T11:33:29.604Z,506.25
2022-10-07T11:34:29.589Z,500.62
2022-10-07T11:35:29.579Z,489.38
2022-10-07T11:36:29.563Z,489.38
2022-10-07T11:37:29.547Z,483.75
2022-10-07T11:38:29.537Z,483.75
2022-10-07T11:39:29.527Z,495.00
2022-10-07T11:40:29.514Z,506.25
2022-10-07T11:41:29.504Z,517.50
2022-10-07T11:42:29.490Z,528.75
2022-10-07T11:43:29.467Z,545.62
2022-10-07T11:44:29.459Z,534.38
2022-10-07T11:45:29.449Z,523.12
2022-10-07T11:46:29.517Z,511.88
2022-10-07T11:47:29.452Z,528.75
2022-10-07T11:48:29.406Z,517.50
2022-10-07T11:49:29.397Z,506.25
2022-10-07T11:50:29.386Z,523.12
2022-10-07T11:51:29.367Z,534.38
2022-10-07T11:52:29.360Z,545.62
2022-10-07T11:53:29.346Z,540.00
2022-10-07T11:54:29.327Z,540.00
2022-10-07T11:55:29.311Z,545.62
2022-10-07T11:56:29.303Z,540.00
2022-10-07T11:57:29.279Z,545.62
2022-10-07T11:58:29.271Z,540.00
2022-10-07T11:59:29.255Z,523.12
2022-10-07T12:00:29.290Z,500.62
2022-10-07T12:01:29.227Z,500.62
2022-10-07T12:02:29.514Z,500.62
2022-10-07T12:03:29.262Z,500.62
2022-10-07T12:04:29.196Z,511.88
2022-10-07T12:05:29.179Z,523.12
2022-10-07T12:06:29.208Z,545.62
2022-10-07T12:07:29.158Z,562.50
2022-10-07T12:08:29.170Z,585.00
2022-10-07T12:09:29.129Z,568.12
2022-10-07T12:10:29.122Z,551.25
2022-10-07T12:11:29.096Z,568.12
2022-10-07T12:12:29.093Z,585.00
2022-10-07T12:13:29.070Z,590.62
2022-10-07T12:14:29.059Z,601.88
2022-10-07T12:15:29.053Z,613.12
2022-10-07T12:16:29.105Z,579.38
2022-10-07T12:17:29.133Z,545.62
2022-10-07T12:18:29.010Z,534.38
2022-10-07T12:19:29.015Z,534.38
2022-10-07T12:20:28.979Z,545.62
2022-10-07T12:21:28.972Z,568.12
2022-10-07T12:22:28.954Z,590.62
2022-10-07T12:23:28.940Z,568.12
2022-10-07T12:24:28.925Z,556.88
2022-10-07T12:25:28.915Z,545.62
2022-10-07T12:26:28.899Z,545.62
2022-10-07T12:27:28.897Z,562.50
2022-10-07T12:28:28.948Z,731.25
2022-10-07T12:29:28.865Z,1496.25
2022-10-07T12:30:28.847Z,1316.25
2022-10-07T12:31:28.871Z,1119.38
2022-10-07T12:32:28.821Z,686.25
2022-10-07T12:33:28.810Z,652.50
2022-10-07T12:34:28.795Z,618.75
2022-10-07T12:35:28.814Z,646.88
2022-10-07T12:36:28.782Z,675.00
2022-10-07T12:37:28.771Z,714.38
2022-10-07T12:38:28.795Z,708.75
2022-10-07T12:39:28.736Z,810.00
2022-10-07T12:40:28.721Z,691.88
2022-10-07T12:41:28.744Z,731.25
2022-10-07T12:42:28.731Z,1012.50
2022-10-07T12:43:28.685Z,720.00
2022-10-07T12:44:28.684Z,669.38
2022-10-07T12:45:28.746Z,635.62
2022-10-07T12:46:28.644Z,562.50
2022-10-07T12:47:28.637Z,511.88
2022-10-07T12:48:28.621Z,495.00
2022-10-07T12:49:28.657Z,517.50